createdAt,value
2019-02-22T00:00:49.379Z,52.37
2019-02-22T00:03:19.830Z,55.83
2019-02-22T00:05:50.123Z,53.30
2019-02-22T00:08:22.030Z,59.07
2019-02-22T00:10:52.338Z,56.53
2019-02-22T00:13:22.896Z,57.33
2019-02-22T00:15:53.294Z,56.90
2019-02-22T00:18:23.580Z,57.63
2019-02-22T00:20:53.890Z,53.00
2019-02-22T00:23:24.204Z,59.37
2019-02-22T00:25:56.056Z,57.53
2019-02-22T00:28:26.347Z,53.83
2019-02-22T00:30:56.590Z,56.40
2019-02-22T00:33:29.129Z,58.07
2019-02-22T00:35:59.668Z,53.23
2019-02-22T00:38:31.625Z,54.53
2019-02-22T00:41:01.929Z,56.97
2019-02-22T00:43:32.235Z,57.77
2019-02-22T00:46:02.805Z,60.27
2019-02-22T00:48:34.080Z,57.30
2019-02-22T00:51:05.404Z,51.80
2019-02-22T00:53:35.771Z,58.40
2019-02-22T00:56:06.259Z,54.23
2019-02-22T00:58:39.387Z,55.47
2019-02-22T01:01:10.683Z,56.07
2019-02-22T01:03:41.006Z,52.47
2019-02-22T01:06:11.346Z,56.50
2019-02-22T01:08:41.617Z,48.97
2019-02-22T01:11:11.970Z,54.93
2019-02-22T01:13:42.231Z,53.83
2019-02-22T01:16:14.096Z,57.20
2019-02-22T01:18:44.486Z,63.60
2019-02-22T01:21:14.769Z,54.37
2019-02-22T01:23:45.102Z,63.17
2019-02-22T01:26:15.392Z,66.20
2019-02-22T01:28:46.281Z,59.03
2019-02-22T01:31:16.604Z,64.53
2019-02-22T01:33:46.963Z,69.40
2019-02-22T01:36:17.219Z,70.10
2019-02-22T01:38:47.457Z,70.27
2019-02-22T01:41:19.348Z,65.43
2019-02-22T01:43:49.683Z,71.03
2019-02-22T01:46:19.933Z,68.90
2019-02-22T01:48:50.330Z,76.50
2019-02-22T01:51:20.791Z,74.73
2019-02-22T01:53:53.862Z,66.43
2019-02-22T01:56:23.756Z,72.40
2019-02-22T01:58:54.052Z,71.07
2019-02-22T02:01:24.797Z,69.93
2019-02-22T02:03:55.131Z,77.23
2019-02-22T02:06:25.768Z,74.97
2019-02-22T02:08:56.007Z,72.20
2019-02-22T02:11:26.487Z,65.93
2019-02-22T02:13:56.922Z,70.90
2019-02-22T02:16:30.362Z,66.20
2019-02-22T02:19:00.761Z,65.20
2019-02-22T02:21:31.038Z,63.40
2019-02-22T02:24:01.264Z,69.67
2019-02-22T02:26:31.631Z,63.90
2019-02-22T02:29:02.080Z,70.83
2019-02-22T02:31:32.316Z,60.30
2019-02-22T02:34:02.605Z,72.60
2019-02-22T02:36:33.088Z,74.93
2019-02-22T02:39:04.037Z,66.77
2019-02-22T02:41:36.102Z,65.50
2019-02-22T02:44:06.320Z,67.57
2019-02-22T02:46:36.571Z,64.30
2019-02-22T02:49:06.795Z,66.23
2019-02-22T02:51:37.283Z,71.37
2019-02-22T02:54:07.618Z,75.80
2019-02-22T02:56:37.907Z,68.73
2019-02-22T02:59:08.153Z,73.03
2019-02-22T03:01:38.435Z,72.83
2019-02-22T03:04:08.674Z,67.53
2019-02-22T03:06:44.376Z,69.03
2019-02-22T03:09:14.704Z,76.07
2019-02-22T03:11:44.959Z,73.53
2019-02-22T03:14:15.215Z,78.67
2019-02-22T03:16:45.527Z,70.97
2019-02-22T03:19:15.832Z,67.30
2019-02-22T03:21:46.118Z,74.63
2019-02-22T03:24:17.044Z,65.33
2019-02-22T03:26:47.305Z,74.30
2019-02-22T03:29:17.527Z,73.07
2019-02-22T03:31:47.814Z,72.03
2019-02-22T03:34:18.085Z,75.43
2019-02-22T03:36:48.350Z,75.27
2019-02-22T03:39:18.617Z,73.87
2019-02-22T03:41:49.120Z,70.83
2019-02-22T03:44:22.554Z,83.47
2019-02-22T03:46:52.958Z,77.90
2019-02-22T03:49:23.256Z,70.87
2019-02-22T03:51:53.532Z,75.93
2019-02-22T03:54:23.839Z,71.23
2019-02-22T03:56:54.290Z,75.50
2019-02-22T03:59:24.664Z,72.13
2019-02-22T04:01:54.901Z,74.43
2019-02-22T04:04:25.156Z,78.37
2019-02-22T04:06:56.388Z,71.37
2019-02-22T04:09:26.842Z,75.67
2019-02-22T04:11:57.257Z,72.40
2019-02-22T04:14:27.527Z,74.67
2019-02-22T04:16:57.749Z,72.50
2019-02-22T04:19:28.048Z,73.97
2019-02-22T04:21:58.243Z,70.00
2019-02-22T04:24:28.615Z,75.33
2019-02-22T04:26:58.882Z,74.40
2019-02-22T04:29:30.768Z,73.57
2019-02-22T04:32:00.993Z,72.07
2019-02-22T04:34:31.295Z,71.33
2019-02-22T04:37:01.714Z,65.00
2019-02-22T04:39:32.112Z,67.83
2019-02-22T04:42:02.370Z,67.37
2019-02-22T04:44:32.665Z,69.30
2019-02-22T04:47:03.970Z,67.93
2019-02-22T04:49:34.362Z,62.13
2019-02-22T04:52:04.613Z,69.10
2019-02-22T04:54:34.942Z,64.50
2019-02-22T04:57:05.210Z,62.17
2019-02-22T04:59:37.124Z,66.77
2019-02-22T05:02:07.343Z,59.20
2019-02-22T05:04:37.689Z,63.30
2019-02-22T05:07:07.953Z,61.53
2019-02-22T05:09:38.188Z,62.40
2019-02-22T05:12:11.054Z,63.67
2019-02-22T05:14:40.408Z,67.67
2019-02-22T05:17:10.924Z,66.13
2019-02-22T05:19:41.240Z,63.23
2019-02-22T05:22:11.783Z,64.90
2019-02-22T05:24:42.771Z,63.33
2019-02-22T05:27:13.060Z,67.83
2019-02-22T05:29:44.570Z,61.10
2019-02-22T05:32:14.874Z,57.80
2019-02-22T05:34:45.687Z,58.47
2019-02-22T05:37:15.969Z,59.07
2019-02-22T05:39:46.899Z,60.40
2019-02-22T05:42:22.777Z,59.07
2019-02-22T05:44:49.119Z,59.83
2019-02-22T05:47:19.413Z,58.53
2019-02-22T05:49:49.752Z,58.70
2019-02-22T05:52:20.218Z,53.73
2019-02-22T05:54:50.602Z,52.10
2019-02-22T05:57:20.894Z,53.13
2019-02-22T05:59:51.197Z,54.67
2019-02-22T06:02:21.488Z,53.57
2019-02-22T06:04:51.915Z,52.60
2019-02-22T06:07:22.351Z,59.30
2019-02-22T06:09:52.559Z,59.60
2019-02-22T06:12:33.840Z,64.03
2019-02-22T06:14:54.961Z,60.00
2019-02-22T06:17:25.247Z,60.10
2019-02-22T06:19:55.494Z,63.80
2019-02-22T06:22:29.628Z,62.13
2019-02-22T06:24:57.797Z,61.23
2019-02-22T06:27:28.075Z,61.23
2019-02-22T06:29:58.442Z,65.53
2019-02-22T06:32:28.877Z,64.97
2019-02-22T06:34:59.140Z,66.70
2019-02-22T06:37:29.508Z,70.60
2019-02-22T06:39:59.821Z,64.70
2019-02-22T06:42:30.097Z,67.00
2019-02-22T06:45:00.664Z,68.10
2019-02-22T06:47:30.906Z,70.30
2019-02-22T06:50:01.190Z,75.87
2019-02-22T06:52:31.637Z,71.07
2019-02-22T06:55:04.455Z,77.43
2019-02-22T06:57:34.740Z,78.13
2019-02-22T07:00:05.287Z,75.57
2019-02-22T07:02:36.018Z,78.63
2019-02-22T07:05:06.545Z,73.70
2019-02-22T07:07:36.836Z,78.80
2019-02-22T07:10:09.603Z,77.87
2019-02-22T07:12:44.641Z,92.07
2019-02-22T07:15:16.061Z,80.50
2019-02-22T07:17:46.490Z,86.83
2019-02-22T07:20:16.787Z,77.77
2019-02-22T07:22:47.238Z,75.23
2019-02-22T07:25:17.534Z,81.50
2019-02-22T07:27:47.987Z,82.33
2019-02-22T07:30:18.300Z,82.83
2019-02-22T07:32:48.598Z,76.93
2019-02-22T07:35:18.921Z,81.20
2019-02-22T07:37:49.384Z,79.67
2019-02-22T07:40:20.102Z,85.10
2019-02-22T07:42:50.493Z,83.10
2019-02-22T07:45:20.838Z,74.80
2019-02-22T07:47:51.111Z,79.63
2019-02-22T07:50:21.436Z,75.77
2019-02-22T07:52:53.374Z,79.93
2019-02-22T07:55:23.700Z,70.70
2019-02-22T07:57:54.008Z,70.23
2019-02-22T08:00:24.302Z,69.17
2019-02-22T08:02:54.597Z,70.77
2019-02-22T08:05:25.217Z,71.60
2019-02-22T08:07:55.539Z,72.23
2019-02-22T08:10:26.353Z,72.20
2019-02-22T08:12:56.931Z,77.97
2019-02-22T08:15:27.140Z,79.13
2019-02-22T08:17:57.837Z,77.50
2019-02-22T08:20:28.104Z,75.30
2019-02-22T08:22:58.844Z,80.27
2019-02-22T08:25:29.330Z,77.57
2019-02-22T08:27:59.968Z,76.33
2019-02-22T08:30:31.887Z,77.87
2019-02-22T08:33:02.690Z,75.43
2019-02-22T08:35:33.064Z,84.20
2019-02-22T08:38:03.429Z,82.80
2019-02-22T08:40:33.705Z,83.10
2019-02-22T08:43:04.316Z,80.33
2019-02-22T08:45:34.707Z,80.63
2019-02-22T08:48:07.999Z,73.47
2019-02-22T08:50:38.248Z,75.47
2019-02-22T08:53:08.631Z,84.07
2019-02-22T08:55:38.938Z,76.30
2019-02-22T08:58:09.323Z,91.50
2019-02-22T09:00:41.596Z,87.33
2019-02-22T09:03:13.391Z,86.97
2019-02-22T09:05:43.737Z,90.93
2019-02-22T09:08:14.270Z,91.80
2019-02-22T09:10:44.521Z,96.03
2019-02-22T09:13:14.802Z,90.73
2019-02-22T09:15:45.170Z,86.37
2019-02-22T09:18:15.703Z,84.00
2019-02-22T09:20:46.270Z,70.83
2019-02-22T09:23:19.356Z,75.93
2019-02-22T09:25:49.592Z,73.63
2019-02-22T09:28:19.915Z,70.23
2019-02-22T09:30:50.313Z,77.20
2019-02-22T09:33:21.273Z,69.83
2019-02-22T09:35:51.702Z,76.17
2019-02-22T09:38:30.957Z,69.70
2019-02-22T09:41:03.032Z,68.67
2019-02-22T09:43:33.278Z,67.67
2019-02-22T09:46:03.527Z,74.40
2019-02-22T09:48:34.002Z,75.37
2019-02-22T09:51:04.579Z,67.13
2019-02-22T09:53:35.164Z,67.07
2019-02-22T09:56:05.644Z,67.27
2019-02-22T09:58:36.222Z,70.57
2019-02-22T10:01:06.663Z,58.23
2019-02-22T10:03:37.275Z,63.90
2019-02-22T10:06:07.637Z,63.20
2019-02-22T10:08:38.041Z,64.27
2019-02-22T10:11:08.332Z,70.93
2019-02-22T10:13:38.750Z,71.60
2019-02-22T10:16:10.840Z,69.77
2019-02-22T10:18:44.218Z,73.90
2019-02-22T10:21:15.575Z,67.47
2019-02-22T10:23:45.826Z,65.60
2019-02-22T10:26:16.207Z,67.93
2019-02-22T10:28:46.498Z,64.27
2019-02-22T10:31:16.821Z,57.67
2019-02-22T10:33:47.113Z,52.83
2019-02-22T10:36:17.603Z,51.97
2019-02-22T10:38:49.431Z,50.30
2019-02-22T10:41:19.823Z,51.80
2019-02-22T10:43:51.830Z,48.83
2019-02-22T10:46:22.552Z,50.90
2019-02-22T10:48:54.068Z,50.57
2019-02-22T10:51:24.368Z,52.30
2019-02-22T10:53:55.719Z,52.97
2019-02-22T10:56:28.236Z,49.63
2019-02-22T10:59:05.209Z,43.13
2019-02-22T11:01:37.831Z,48.43
2019-02-22T11:04:10.197Z,50.00
2019-02-22T11:06:40.676Z,41.87
2019-02-22T11:09:11.043Z,44.30
2019-02-22T11:11:41.242Z,40.23
2019-02-22T11:14:11.596Z,43.20
2019-02-22T11:16:41.910Z,45.80
2019-02-22T11:19:12.362Z,39.53
2019-02-22T11:21:45.383Z,38.20
2019-02-22T11:24:15.664Z,36.70
2019-02-22T11:26:45.983Z,38.53
2019-02-22T11:29:16.414Z,35.97
2019-02-22T11:31:47.041Z,36.33
2019-02-22T11:34:17.813Z,32.83
2019-02-22T11:36:48.222Z,26.87
2019-02-22T11:39:20.776Z,27.83
2019-02-22T11:41:51.350Z,25.93
2019-02-22T11:44:22.236Z,30.47
2019-02-22T11:46:52.487Z,29.90
2019-02-22T11:49:23.443Z,29.30
2019-02-22T11:51:55.914Z,25.03
2019-02-22T11:54:26.107Z,30.57
2019-02-22T11:56:56.499Z,27.37
2019-02-22T11:59:26.997Z,30.93
2019-02-22T12:01:58.522Z,31.03
2019-02-22T12:04:28.882Z,27.70
2019-02-22T12:06:59.355Z,28.00
2019-02-22T12:09:29.680Z,24.53
2019-02-22T12:12:00.071Z,26.13
2019-02-22T12:14:30.454Z,27.30
2019-02-22T12:17:01.047Z,25.53
2019-02-22T12:19:31.467Z,24.33
2019-02-22T12:22:01.955Z,23.23
2019-02-22T12:24:32.294Z,13.00
2019-02-22T12:27:02.625Z,13.60
2019-02-22T12:29:32.919Z,13.50
2019-02-22T12:32:03.195Z,13.37
2019-02-22T12:34:33.697Z,17.63
2019-02-22T12:37:04.159Z,19.73
2019-02-22T12:39:34.445Z,23.17
2019-02-22T12:42:04.911Z,21.43
2019-02-22T12:44:35.339Z,19.57
2019-02-22T12:47:05.658Z,19.50
2019-02-22T12:49:35.972Z,21.60
2019-02-22T12:52:06.449Z,20.17
2019-02-22T12:54:39.892Z,16.60
2019-02-22T12:57:10.433Z,18.43
2019-02-22T12:59:40.793Z,17.60
2019-02-22T13:02:11.369Z,18.00
2019-02-22T13:04:41.815Z,18.43
2019-02-22T13:07:12.238Z,17.60
2019-02-22T13:09:42.550Z,16.17
2019-02-22T13:12:14.219Z,15.37
2019-02-22T13:14:45.034Z,16.20
2019-02-22T13:17:15.573Z,17.20
2019-02-22T13:19:46.012Z,18.77
2019-02-22T13:22:16.502Z,14.73
2019-02-22T13:24:47.774Z,14.07
2019-02-22T13:27:18.128Z,14.97
2019-02-22T13:29:48.450Z,15.00
2019-02-22T13:32:21.743Z,13.07
2019-02-22T13:34:53.141Z,14.10
2019-02-22T13:37:25.412Z,13.20
2019-02-22T13:39:56.576Z,12.50
2019-02-22T13:42:26.910Z,12.07
2019-02-22T13:44:57.208Z,11.17
2019-02-22T13:47:27.562Z,10.97
2019-02-22T13:49:59.478Z,11.47
2019-02-22T13:52:30.604Z,11.60
2019-02-22T13:55:01.112Z,12.37
2019-02-22T13:57:32.993Z,8.80
2019-02-22T14:00:03.301Z,10.77
2019-02-22T14:02:36.161Z,11.40
2019-02-22T14:05:06.728Z,9.93
2019-02-22T14:07:37.754Z,10.07
2019-02-22T14:10:09.705Z,11.60
2019-02-22T14:12:40.323Z,10.03
2019-02-22T14:15:10.688Z,12.73
2019-02-22T14:17:45.639Z,10.37
2019-02-22T14:20:18.755Z,7.40
2019-02-22T14:22:50.131Z,8.13
2019-02-22T14:25:20.410Z,9.23
2019-02-22T14:27:50.785Z,7.90
2019-02-22T14:30:21.295Z,8.67
2019-02-22T14:32:54.685Z,9.93
2019-02-22T14:35:24.999Z,7.87
2019-02-22T14:37:55.357Z,9.20
2019-02-22T14:40:25.681Z,8.60
2019-02-22T14:42:57.567Z,7.77
2019-02-22T14:45:27.902Z,9.63
2019-02-22T14:47:58.360Z,7.80
2019-02-22T14:50:28.724Z,7.10
2019-02-22T14:52:59.029Z,6.83
2019-02-22T14:55:29.336Z,7.73
2019-02-22T14:57:59.838Z,7.20
2019-02-22T15:00:31.187Z,6.83
2019-02-22T15:03:01.634Z,7.10
2019-02-22T15:05:31.932Z,7.73
2019-02-22T15:08:05.998Z,7.93
2019-02-22T15:10:36.569Z,9.00
2019-02-22T15:13:07.108Z,9.30
2019-02-22T15:15:59.953Z,9.87
2019-02-22T15:18:21.850Z,8.63
2019-02-22T15:20:52.318Z,7.57
2019-02-22T15:23:22.712Z,10.17
2019-02-22T15:25:53.756Z,10.10
2019-02-22T15:28:26.367Z,7.50
2019-02-22T15:30:56.481Z,7.53
2019-02-22T15:33:28.310Z,8.03
2019-02-22T15:35:58.558Z,6.17
2019-02-22T15:38:34.605Z,8.60
2019-02-22T15:41:04.956Z,5.77
2019-02-22T15:43:35.283Z,9.20
2019-02-22T15:46:12.273Z,8.00
2019-02-22T15:48:38.915Z,5.70
2019-02-22T15:51:09.224Z,9.03
2019-02-22T15:53:43.969Z,6.93
2019-02-22T15:56:14.013Z,6.67
2019-02-22T15:58:44.339Z,7.00
2019-02-22T16:01:14.740Z,6.67
2019-02-22T16:03:56.275Z,5.63
2019-02-22T16:06:26.562Z,8.63
2019-02-22T16:08:57.090Z,9.53
2019-02-22T16:11:27.484Z,6.97
2019-02-22T16:14:00.786Z,10.50
2019-02-22T16:16:31.186Z,8.67
2019-02-22T16:19:01.529Z,8.03
2019-02-22T16:21:31.873Z,8.47
2019-02-22T16:24:02.128Z,9.50
2019-02-22T16:26:32.529Z,8.47
2019-02-22T16:29:03.749Z,7.40
2019-02-22T16:31:34.142Z,9.17
2019-02-22T16:34:04.531Z,9.83
2019-02-22T16:36:34.886Z,8.83
2019-02-22T16:39:06.308Z,8.13
2019-02-22T16:41:38.218Z,7.90
2019-02-22T16:44:08.530Z,9.50
2019-02-22T16:46:38.995Z,10.33
2019-02-22T16:49:09.399Z,11.20
2019-02-22T16:51:39.782Z,9.77
2019-02-22T16:54:10.092Z,9.23
2019-02-22T16:56:41.392Z,9.70
2019-02-22T16:59:11.665Z,9.13
2019-02-22T17:01:42.026Z,11.20
2019-02-22T17:04:12.330Z,10.03
2019-02-22T17:06:42.606Z,11.77
2019-02-22T17:09:12.984Z,12.73
2019-02-22T17:11:46.137Z,12.77
2019-02-22T17:14:16.465Z,11.13
2019-02-22T17:16:46.786Z,11.97
2019-02-22T17:19:17.026Z,13.20
2019-02-22T17:21:47.304Z,11.43
2019-02-22T17:24:18.556Z,13.17
2019-02-22T17:26:48.894Z,12.87
2019-02-22T17:29:19.271Z,12.67
2019-02-22T17:31:49.534Z,12.03
2019-02-22T17:34:19.781Z,12.30
2019-02-22T17:36:50.087Z,13.53
2019-02-22T17:39:20.412Z,16.00
2019-02-22T17:41:50.804Z,13.60
2019-02-22T17:44:21.023Z,13.50
2019-02-22T17:46:57.755Z,11.50
2019-02-22T17:49:23.336Z,12.13
2019-02-22T17:51:53.670Z,9.13
2019-02-22T17:54:23.944Z,12.17
2019-02-22T17:56:54.269Z,13.50
2019-02-22T17:59:24.775Z,13.07
2019-02-22T18:01:55.162Z,12.33
2019-02-22T18:04:25.476Z,12.37
2019-02-22T18:06:55.826Z,12.60
2019-02-22T18:09:27.148Z,14.03
2019-02-22T18:11:57.390Z,12.90
2019-02-22T18:14:27.904Z,13.37
2019-02-22T18:17:07.925Z,14.83
2019-02-22T18:19:32.001Z,13.77
2019-02-22T18:22:03.635Z,14.60
2019-02-22T18:24:34.103Z,14.93
2019-02-22T18:27:04.651Z,16.43
2019-02-22T18:29:35.840Z,14.87
2019-02-22T18:32:06.698Z,18.47
2019-02-22T18:34:38.099Z,15.63
2019-02-22T18:37:08.407Z,16.13
2019-02-22T18:39:39.713Z,15.40
2019-02-22T18:42:10.015Z,15.83
2019-02-22T18:44:40.393Z,14.03
2019-02-22T18:47:19.008Z,15.67
2019-02-22T18:49:42.743Z,12.67
2019-02-22T18:52:13.200Z,15.67
2019-02-22T18:54:46.086Z,15.20
2019-02-22T18:57:15.657Z,16.70
2019-02-22T18:59:46.007Z,16.93
2019-02-22T19:02:16.368Z,16.13
2019-02-22T19:04:48.505Z,16.47
2019-02-22T19:07:18.843Z,13.07
2019-02-22T19:09:49.203Z,15.27
2019-02-22T19:12:19.691Z,14.97
2019-02-22T19:14:50.199Z,15.87
2019-02-22T19:17:30.136Z,15.03
2019-02-22T19:19:52.718Z,14.23
2019-02-22T19:22:23.084Z,15.27
2019-02-22T19:24:54.980Z,14.47
2019-02-22T19:27:25.268Z,14.70
2019-02-22T19:29:55.633Z,12.47
2019-02-22T19:32:25.987Z,15.50
2019-02-22T19:34:56.230Z,14.70
2019-02-22T19:37:26.639Z,13.77
2019-02-22T19:39:56.957Z,13.10
2019-02-22T19:42:27.463Z,13.33
2019-02-22T19:44:57.802Z,12.57
2019-02-22T19:47:29.074Z,13.50
2019-02-22T19:49:59.357Z,13.83
2019-02-22T19:52:31.313Z,14.97
2019-02-22T19:55:01.579Z,13.87
2019-02-22T19:57:32.921Z,15.43
2019-02-22T20:00:03.952Z,15.17
2019-02-22T20:02:35.438Z,17.17
2019-02-22T20:05:06.250Z,15.47
2019-02-22T20:07:37.046Z,15.10
2019-02-22T20:10:17.419Z,13.80
2019-02-22T20:12:40.965Z,12.23
2019-02-22T20:15:14.295Z,13.27
2019-02-22T20:17:53.241Z,9.97
2019-02-22T20:20:17.191Z,10.67
2019-02-22T20:22:48.084Z,11.57
2019-02-22T20:25:18.345Z,8.90
2019-02-22T20:27:48.730Z,9.87
2019-02-22T20:30:19.520Z,10.90
2019-02-22T20:32:49.898Z,8.87
2019-02-22T20:35:21.481Z,11.33
2019-02-22T20:37:53.365Z,10.20
2019-02-22T20:40:25.246Z,9.97
2019-02-22T20:42:55.655Z,10.30
2019-02-22T20:45:26.097Z,12.37
2019-02-22T20:48:04.550Z,9.77
2019-02-22T20:50:28.410Z,7.80
2019-02-22T20:53:00.511Z,7.97
2019-02-22T20:55:30.847Z,8.23
2019-02-22T20:58:01.137Z,9.60
2019-02-22T21:00:31.682Z,9.97
2019-02-22T21:03:02.100Z,10.30
2019-02-22T21:05:32.512Z,11.57
2019-02-22T21:08:02.788Z,10.97
2019-02-22T21:10:33.097Z,11.80
2019-02-22T21:13:05.094Z,9.87
2019-02-22T21:15:35.397Z,10.40
2019-02-22T21:18:15.850Z,11.53
2019-02-22T21:20:38.029Z,12.30
2019-02-22T21:23:09.693Z,10.47
2019-02-22T21:25:40.155Z,10.33
2019-02-22T21:28:10.506Z,9.57
2019-02-22T21:30:40.788Z,12.40
2019-02-22T21:33:11.114Z,10.53
2019-02-22T21:35:41.453Z,12.00
2019-02-22T21:38:11.801Z,12.57
2019-02-22T21:40:42.214Z,14.20
2019-02-22T21:43:12.514Z,12.47
2019-02-22T21:45:42.832Z,14.47
2019-02-22T21:48:13.259Z,11.27
2019-02-22T21:50:43.616Z,12.47
2019-02-22T21:53:13.937Z,13.87
2019-02-22T21:55:44.218Z,15.03
2019-02-22T21:58:14.594Z,14.30
2019-02-22T22:00:44.896Z,15.60
2019-02-22T22:03:15.250Z,16.13
2019-02-22T22:05:45.564Z,14.63
2019-02-22T22:08:16.186Z,14.57
2019-02-22T22:10:46.680Z,14.03
2019-02-22T22:13:17.005Z,15.63
2019-02-22T22:15:47.393Z,15.83
2019-02-22T22:18:18.692Z,17.27
2019-02-22T22:20:49.047Z,16.00
2019-02-22T22:23:19.420Z,16.23
2019-02-22T22:25:49.711Z,18.07
2019-02-22T22:28:20.072Z,17.13
2019-02-22T22:30:50.366Z,15.53
2019-02-22T22:33:20.757Z,16.93
2019-02-22T22:35:51.147Z,16.47
2019-02-22T22:38:21.442Z,16.20
2019-02-22T22:40:52.139Z,16.00
2019-02-22T22:43:25.774Z,15.47
2019-02-22T22:45:56.089Z,14.67
2019-02-22T22:48:26.951Z,17.77
2019-02-22T22:50:57.447Z,15.33
2019-02-22T22:53:28.139Z,17.27
2019-02-22T22:55:58.429Z,16.50
2019-02-22T22:58:28.856Z,16.87
2019-02-22T23:01:06.607Z,16.07
2019-02-22T23:03:37.842Z,18.07
2019-02-22T23:06:09.363Z,16.50
2019-02-22T23:08:39.748Z,16.57
2019-02-22T23:11:10.101Z,15.90
2019-02-22T23:13:40.461Z,13.13
2019-02-22T23:16:10.908Z,14.63
2019-02-22T23:18:41.314Z,14.77
2019-02-22T23:21:11.549Z,17.00
2019-02-22T23:23:41.952Z,14.70
2019-02-22T23:26:12.268Z,15.50
2019-02-22T23:28:42.692Z,14.17
2019-02-22T23:31:13.015Z,13.90
2019-02-22T23:33:43.422Z,15.97
2019-02-22T23:36:13.681Z,15.37
2019-02-22T23:38:44.063Z,19.23
2019-02-22T23:41:14.337Z,16.43
2019-02-22T23:43:45.734Z,18.97
2019-02-22T23:46:15.986Z,18.73
2019-02-22T23:48:46.225Z,17.93
2019-02-22T23:51:16.560Z,17.10
2019-02-22T23:53:47.007Z,18.30
2019-02-22T23:56:20.098Z,14.47
2019-02-22T23:58:50.415Z,16.67
